createdAt,value
2023-04-21T00:00:40.825Z,35.50
2023-04-21T00:03:55.799Z,35.50
2023-04-21T00:07:01.759Z,26.25
2023-04-21T00:10:06.944Z,38.00
2023-04-21T00:13:10.104Z,35.25
2023-04-21T00:16:12.834Z,36.50
2023-04-21T00:19:15.833Z,35.25
2023-04-21T00:22:19.406Z,38.50
2023-04-21T00:25:22.598Z,27.50
2023-04-21T00:28:25.083Z,35.25
2023-04-21T00:31:28.989Z,34.00
2023-04-21T00:34:33.301Z,32.25
2023-04-21T00:37:36.096Z,27.25
2023-04-21T00:40:39.336Z,36.75
2023-04-21T00:44:04.706Z,33.00
2023-04-21T00:47:07.558Z,34.50
2023-04-21T00:50:11.082Z,31.00
2023-04-21T00:53:15.695Z,30.75
2023-04-21T00:56:18.903Z,29.50
2023-04-21T00:59:21.517Z,32.75
2023-04-21T01:02:24.693Z,35.25
2023-04-21T01:05:27.416Z,34.00
2023-04-21T01:08:30.201Z,32.50
2023-04-21T01:11:32.859Z,34.33
2023-04-21T01:14:37.289Z,29.75
2023-04-21T01:17:40.698Z,29.50
2023-04-21T01:20:45.010Z,25.67
2023-04-21T01:23:47.451Z,28.75
2023-04-21T01:26:50.113Z,35.00
2023-04-21T01:29:53.575Z,32.00
2023-04-21T01:32:56.497Z,31.67
2023-04-21T01:36:02.053Z,31.75
2023-04-21T01:39:05.228Z,37.00
2023-04-21T01:42:07.841Z,25.67
2023-04-21T01:45:12.080Z,24.67
2023-04-21T01:48:14.556Z,32.33
2023-04-21T01:51:17.246Z,32.00
2023-04-21T01:54:19.628Z,31.00
2023-04-21T01:57:22.240Z,32.67
2023-04-21T02:00:27.017Z,29.33
2023-04-21T02:03:29.840Z,29.00
2023-04-21T02:06:32.324Z,31.00
2023-04-21T02:09:35.951Z,26.33
2023-04-21T02:12:38.606Z,27.67
2023-04-21T02:15:41.753Z,25.67
2023-04-21T02:18:44.821Z,27.67
2023-04-21T02:21:47.683Z,30.67
2023-04-21T02:24:50.851Z,29.00
2023-04-21T02:27:55.300Z,28.67
2023-04-21T02:30:58.216Z,30.00
2023-04-21T02:34:01.937Z,29.33
2023-04-21T02:37:05.095Z,24.00
2023-04-21T02:40:08.510Z,26.67
2023-04-21T02:43:12.906Z,27.00
2023-04-21T02:46:15.634Z,25.00
2023-04-21T02:49:18.197Z,34.33
2023-04-21T02:52:21.181Z,24.00
2023-04-21T02:55:23.883Z,23.00
2023-04-21T02:58:26.555Z,30.67
2023-04-21T03:01:28.881Z,29.33
2023-04-21T03:04:32.901Z,26.33
2023-04-21T03:07:35.577Z,29.33
2023-04-21T03:10:40.282Z,23.67
2023-04-21T03:13:42.612Z,22.33
2023-04-21T03:16:45.397Z,19.33
2023-04-21T03:19:49.407Z,26.33
2023-04-21T03:22:59.850Z,24.00
2023-04-21T03:26:08.285Z,29.67
2023-04-21T03:29:13.928Z,26.67
2023-04-21T03:32:17.978Z,24.33
2023-04-21T03:35:22.777Z,27.67
2023-04-21T03:38:26.171Z,24.67
2023-04-21T03:41:28.877Z,26.33
2023-04-21T03:44:31.466Z,23.33
2023-04-21T03:47:37.643Z,30.67
2023-04-21T03:50:40.209Z,26.00
2023-04-21T03:53:42.961Z,20.67
2023-04-21T03:56:45.481Z,26.00
2023-04-21T03:59:48.267Z,23.00
2023-04-21T04:02:50.822Z,23.00
2023-04-21T04:05:53.737Z,23.00
2023-04-21T04:08:56.207Z,23.00
2023-04-21T04:11:58.884Z,25.33
2023-04-21T04:15:01.720Z,19.00
2023-04-21T04:18:04.496Z,25.67
2023-04-21T04:21:07.785Z,24.67
2023-04-21T04:24:11.714Z,25.00
2023-04-21T04:27:16.903Z,25.33
2023-04-21T04:30:19.730Z,26.00
2023-04-21T04:33:22.230Z,22.00
2023-04-21T04:36:25.392Z,23.00
2023-04-21T04:39:27.833Z,20.33
2023-04-21T04:42:30.520Z,19.67
2023-04-21T04:45:33.353Z,22.33
2023-04-21T04:48:36.012Z,19.00
2023-04-21T04:51:38.371Z,22.33
2023-04-21T04:54:41.141Z,21.00
2023-04-21T04:57:43.476Z,19.67
2023-04-21T05:00:46.250Z,19.67
2023-04-21T05:03:48.741Z,23.00
2023-04-21T05:06:52.262Z,23.67
2023-04-21T05:09:54.819Z,21.00
2023-04-21T05:12:57.559Z,21.75
2023-04-21T05:16:04.240Z,15.75
2023-04-21T05:19:07.288Z,24.67
2023-04-21T05:22:09.678Z,17.25
2023-04-21T05:25:16.045Z,19.67
2023-04-21T05:28:18.554Z,19.00
2023-04-21T05:31:21.355Z,20.25
2023-04-21T05:34:24.116Z,18.00
2023-04-21T05:37:27.285Z,19.75
2023-04-21T05:40:29.597Z,21.50
2023-04-21T05:43:33.695Z,21.25
2023-04-21T05:46:36.259Z,17.00
2023-04-21T05:49:39.399Z,19.00
2023-04-21T05:52:41.718Z,18.00
2023-04-21T05:55:44.410Z,17.25
2023-04-21T05:58:46.813Z,19.50
2023-04-21T06:01:49.479Z,19.00
2023-04-21T06:04:52.002Z,16.50
2023-04-21T06:07:54.841Z,15.50
2023-04-21T06:10:57.223Z,12.25
2023-04-21T06:14:00.205Z,17.75
2023-04-21T06:17:02.625Z,17.50
2023-04-21T06:20:05.715Z,19.00
2023-04-21T06:23:09.739Z,15.50
2023-04-21T06:26:13.212Z,14.50
2023-04-21T06:29:15.521Z,15.00
2023-04-21T06:32:18.247Z,13.00
2023-04-21T06:35:21.031Z,14.75
2023-04-21T06:38:23.803Z,15.25
2023-04-21T06:41:26.493Z,15.25
2023-04-21T06:44:29.966Z,14.25
2023-04-21T06:47:32.789Z,12.25
2023-04-21T06:50:35.638Z,12.50
2023-04-21T06:53:38.501Z,12.50
2023-04-21T06:56:43.184Z,14.00
2023-04-21T06:59:45.628Z,14.75
2023-04-21T07:02:48.520Z,14.00
2023-04-21T07:05:51.131Z,12.50
2023-04-21T07:08:54.114Z,14.00
2023-04-21T07:11:56.713Z,13.25
2023-04-21T07:14:59.400Z,13.00
2023-04-21T07:18:01.959Z,15.50
2023-04-21T07:21:04.867Z,15.00
2023-04-21T07:24:07.760Z,12.25
2023-04-21T07:27:10.635Z,10.00
2023-04-21T07:30:13.470Z,7.50
2023-04-21T07:33:16.605Z,14.50
2023-04-21T07:36:19.163Z,11.00
2023-04-21T07:39:22.437Z,13.50
2023-04-21T07:42:27.086Z,11.75
2023-04-21T07:45:30.113Z,8.25
2023-04-21T07:48:32.592Z,9.75
2023-04-21T07:51:35.346Z,10.00
2023-04-21T07:54:37.917Z,10.00
2023-04-21T07:57:40.721Z,11.00
2023-04-21T08:00:43.540Z,9.67
2023-04-21T08:03:46.721Z,11.00
2023-04-21T08:06:49.350Z,8.00
2023-04-21T08:09:52.336Z,9.00
2023-04-21T08:12:54.952Z,8.33
2023-04-21T08:15:58.344Z,8.67
2023-04-21T08:19:01.029Z,10.33
2023-04-21T08:22:03.782Z,9.33
2023-04-21T08:25:06.548Z,9.67
2023-04-21T08:28:09.290Z,9.00
2023-04-21T08:31:11.778Z,8.00
2023-04-21T08:34:15.790Z,11.00
2023-04-21T08:37:19.697Z,10.00
2023-04-21T08:40:24.075Z,9.67
2023-04-21T08:43:26.654Z,9.67
2023-04-21T08:46:29.718Z,7.67
2023-04-21T08:49:33.336Z,8.00
2023-04-21T08:52:36.565Z,7.00
2023-04-21T08:55:39.047Z,7.00
2023-04-21T08:58:42.265Z,8.00
2023-04-21T09:02:09.176Z,8.00
2023-04-21T09:05:22.958Z,8.33
2023-04-21T09:08:27.219Z,6.67
2023-04-21T09:11:33.838Z,6.00
2023-04-21T09:14:36.253Z,9.00
2023-04-21T09:17:39.289Z,5.00
2023-04-21T09:20:43.885Z,7.00
2023-04-21T09:23:51.388Z,7.00
2023-04-21T09:26:54.879Z,8.00
2023-04-21T09:30:08.889Z,7.00
2023-04-21T09:33:30.730Z,9.00
2023-04-21T09:36:35.625Z,8.67
2023-04-21T09:39:52.678Z,8.00
2023-04-21T09:42:59.930Z,8.33
2023-04-21T09:46:04.132Z,8.00
2023-04-21T09:49:07.336Z,6.33
2023-04-21T09:52:18.992Z,7.00
2023-04-21T09:55:31.444Z,7.00
2023-04-21T09:58:44.953Z,7.67
2023-04-21T10:01:50.507Z,6.33
2023-04-21T10:04:53.892Z,9.00
2023-04-21T10:07:57.141Z,8.00
2023-04-21T10:11:00.582Z,9.00
2023-04-21T10:14:04.045Z,8.00
2023-04-21T10:17:08.814Z,7.67
2023-04-21T10:20:15.986Z,8.00
2023-04-21T10:23:32.550Z,7.00
2023-04-21T10:26:36.256Z,9.67
2023-04-21T10:29:52.613Z,7.67
2023-04-21T10:33:04.706Z,9.33
2023-04-21T10:36:07.674Z,6.67
2023-04-21T10:39:13.332Z,8.00
2023-04-21T10:42:20.932Z,9.67
2023-04-21T10:45:26.332Z,8.67
2023-04-21T10:48:28.933Z,8.33
2023-04-21T10:51:34.853Z,7.67
2023-04-21T10:54:46.352Z,9.67
2023-04-21T10:57:49.307Z,5.00
2023-04-21T11:00:55.760Z,8.67
2023-04-21T11:04:00.102Z,6.00
2023-04-21T11:07:13.690Z,10.67
2023-04-21T11:10:16.663Z,8.67
2023-04-21T11:13:22.388Z,9.67
2023-04-21T11:16:25.132Z,8.33
2023-04-21T11:19:27.687Z,9.00
2023-04-21T11:22:30.830Z,10.00
2023-04-21T11:25:33.236Z,8.00
2023-04-21T11:28:36.660Z,9.00
2023-04-21T11:31:44.975Z,10.00
2023-04-21T11:34:48.251Z,8.00
2023-04-21T11:37:52.258Z,9.00
2023-04-21T11:40:55.468Z,8.33
2023-04-21T11:43:58.062Z,13.33
2023-04-21T11:47:01.265Z,8.00
2023-04-21T11:50:04.468Z,9.00
2023-04-21T11:53:07.445Z,10.00
2023-04-21T11:56:11.782Z,10.00
2023-04-21T11:59:16.527Z,10.33
2023-04-21T12:02:24.783Z,9.00
2023-04-21T12:05:35.715Z,12.67
2023-04-21T12:08:41.130Z,10.33
2023-04-21T12:11:44.135Z,10.00
2023-04-21T12:14:46.675Z,9.67
2023-04-21T12:17:51.420Z,9.33
2023-04-21T12:20:53.830Z,11.67
2023-04-21T12:23:57.299Z,11.67
2023-04-21T12:26:59.704Z,10.00
2023-04-21T12:30:03.525Z,7.33
2023-04-21T12:33:06.483Z,10.00
2023-04-21T12:36:09.243Z,9.33
2023-04-21T12:39:12.151Z,10.00
2023-04-21T12:42:15.396Z,9.00
2023-04-21T12:45:18.034Z,9.00
2023-04-21T12:48:21.160Z,8.67
2023-04-21T12:51:23.674Z,9.33
2023-04-21T12:54:26.569Z,9.00
2023-04-21T12:57:29.170Z,8.00
2023-04-21T13:00:33.628Z,9.00
2023-04-21T13:03:36.242Z,10.33
2023-04-21T13:06:39.415Z,10.00
2023-04-21T13:09:42.230Z,8.67
2023-04-21T13:12:45.187Z,8.33
2023-04-21T13:15:47.867Z,10.00
2023-04-21T13:18:50.709Z,7.00
2023-04-21T13:21:54.338Z,7.33
2023-04-21T13:24:57.317Z,7.33
2023-04-21T13:27:59.899Z,8.33
2023-04-21T13:31:02.877Z,7.33
2023-04-21T13:34:05.378Z,8.00
2023-04-21T13:37:11.649Z,9.00
2023-04-21T13:40:14.046Z,7.67
2023-04-21T13:43:16.664Z,7.00
2023-04-21T13:46:20.388Z,9.00
2023-04-21T13:49:23.368Z,8.00
2023-04-21T13:52:26.322Z,7.33
2023-04-21T13:55:28.958Z,7.00
2023-04-21T13:58:31.764Z,7.00
2023-04-21T14:01:34.680Z,7.67
2023-04-21T14:04:37.838Z,7.00
2023-04-21T14:07:41.187Z,6.00
2023-04-21T14:10:43.892Z,7.00
2023-04-21T14:13:59.932Z,9.00
2023-04-21T14:17:09.392Z,7.00
2023-04-21T14:20:12.322Z,8.00
2023-04-21T14:23:14.874Z,6.00
2023-04-21T14:26:17.723Z,9.00
2023-04-21T14:29:20.185Z,7.33
2023-04-21T14:32:23.142Z,8.00
2023-04-21T14:35:26.051Z,7.00
2023-04-21T14:38:30.975Z,9.00
2023-04-21T14:41:33.612Z,11.67
2023-04-21T14:44:36.408Z,8.67
2023-04-21T14:47:39.065Z,9.33
2023-04-21T14:50:42.133Z,8.33
2023-04-21T14:53:44.723Z,12.00
2023-04-21T14:56:47.615Z,8.67
2023-04-21T14:59:51.714Z,10.00
2023-04-21T15:02:54.547Z,7.00
2023-04-21T15:05:57.066Z,12.33
2023-04-21T15:08:59.712Z,11.67
2023-04-21T15:12:02.573Z,9.00
2023-04-21T15:15:06.805Z,8.00
2023-04-21T15:18:09.317Z,8.00
2023-04-21T15:21:12.244Z,9.00
2023-04-21T15:24:14.729Z,8.00
2023-04-21T15:27:17.945Z,9.00
2023-04-21T15:30:20.546Z,10.00
2023-04-21T15:33:23.532Z,10.33
2023-04-21T15:36:26.178Z,10.33
2023-04-21T15:39:28.886Z,7.33
2023-04-21T15:42:31.362Z,7.00
2023-04-21T15:45:34.057Z,6.67
2023-04-21T15:48:36.669Z,7.33
2023-04-21T15:51:40.958Z,7.00
2023-04-21T15:54:46.015Z,7.00
2023-04-21T15:57:49.037Z,5.33
2023-04-21T16:00:51.406Z,4.00
2023-04-21T16:03:54.202Z,7.00
2023-04-21T16:06:56.698Z,6.00
2023-04-21T16:09:59.590Z,26.00
2023-04-21T16:13:02.034Z,13.33
2023-04-21T16:16:04.953Z,13.00
2023-04-21T16:19:07.447Z,13.33
2023-04-21T16:22:10.153Z,13.33
2023-04-21T16:25:14.388Z,26.33
2023-04-21T16:28:17.267Z,9.00
2023-04-21T16:31:19.818Z,7.00
2023-04-21T16:34:22.723Z,22.00
2023-04-21T16:37:25.169Z,11.00
2023-04-21T16:40:28.003Z,39.00
2023-04-21T16:43:30.581Z,14.67
2023-04-21T16:46:34.100Z,9.00
2023-04-21T16:49:36.653Z,10.33
2023-04-21T16:52:39.508Z,8.00
2023-04-21T16:55:42.153Z,10.33
2023-04-21T16:58:45.338Z,8.00
2023-04-21T17:01:48.070Z,10.67
2023-04-21T17:04:51.048Z,18.33
2023-04-21T17:07:53.543Z,14.00
2023-04-21T17:10:56.368Z,10.00
2023-04-21T17:13:58.803Z,9.67
2023-04-21T17:17:01.762Z,7.67
2023-04-21T17:20:04.761Z,8.67
2023-04-21T17:23:07.530Z,7.33
2023-04-21T17:26:12.917Z,7.75
2023-04-21T17:29:15.920Z,8.50
2023-04-21T17:32:18.705Z,9.25
2023-04-21T17:35:21.896Z,10.25
2023-04-21T17:38:24.526Z,9.00
2023-04-21T17:41:27.991Z,26.00
2023-04-21T17:44:30.770Z,17.50
2023-04-21T17:47:33.807Z,17.75
2023-04-21T17:50:36.319Z,14.75
2023-04-21T17:53:39.148Z,21.75
2023-04-21T17:56:41.615Z,11.75
2023-04-21T17:59:44.537Z,11.00
2023-04-21T18:02:47.049Z,13.00
2023-04-21T18:05:50.487Z,12.50
2023-04-21T18:08:52.771Z,11.00
2023-04-21T18:11:55.668Z,11.75
2023-04-21T18:14:58.769Z,13.00
2023-04-21T18:18:01.754Z,10.00
2023-04-21T18:21:04.633Z,12.75
2023-04-21T18:24:08.529Z,9.00
2023-04-21T18:27:11.676Z,11.50
2023-04-21T18:30:14.928Z,9.50
2023-04-21T18:33:18.890Z,10.00
2023-04-21T18:36:21.604Z,13.25
2023-04-21T18:39:24.031Z,9.50
2023-04-21T18:42:27.922Z,9.25
2023-04-21T18:45:31.190Z,14.00
2023-04-21T18:48:34.173Z,11.00
2023-04-21T18:51:41.878Z,11.00
2023-04-21T18:54:45.030Z,13.50
2023-04-21T18:57:48.842Z,11.00
2023-04-21T19:00:52.307Z,11.75
2023-04-21T19:03:55.508Z,15.50
2023-04-21T19:06:59.234Z,10.75
2023-04-21T19:10:01.985Z,16.00
2023-04-21T19:13:06.039Z,13.50
2023-04-21T19:16:12.538Z,13.75
2023-04-21T19:19:16.070Z,15.25
2023-04-21T19:22:20.691Z,14.50
2023-04-21T19:25:26.940Z,13.25
2023-04-21T19:28:30.189Z,13.50
2023-04-21T19:31:35.106Z,13.25
2023-04-21T19:34:39.602Z,14.75
2023-04-21T19:37:43.755Z,14.75
2023-04-21T19:40:48.333Z,13.75
2023-04-21T19:43:53.424Z,13.75
2023-04-21T19:46:57.503Z,14.50
2023-04-21T19:50:00.610Z,18.75
2023-04-21T19:53:04.069Z,13.25
2023-04-21T19:56:08.593Z,13.25
2023-04-21T19:59:12.601Z,15.25
2023-04-21T20:02:16.580Z,14.00
2023-04-21T20:05:20.093Z,17.50
2023-04-21T20:08:23.126Z,13.75
2023-04-21T20:11:28.820Z,20.00
2023-04-21T20:14:35.280Z,19.25
2023-04-21T20:17:40.189Z,22.00
2023-04-21T20:20:44.186Z,20.75
2023-04-21T20:23:47.693Z,21.00
2023-04-21T20:26:51.347Z,18.00
2023-04-21T20:29:53.878Z,19.00
2023-04-21T20:32:56.605Z,21.75
2023-04-21T20:36:07.508Z,20.50
2023-04-21T20:39:11.280Z,22.50
2023-04-21T20:42:15.132Z,21.75
2023-04-21T20:45:18.667Z,25.00
2023-04-21T20:48:21.366Z,21.00
2023-04-21T20:51:24.363Z,22.75
2023-04-21T20:54:27.811Z,21.25
2023-04-21T20:57:30.974Z,20.25
2023-04-21T21:00:34.911Z,20.25
2023-04-21T21:03:37.913Z,26.50
2023-04-21T21:06:40.693Z,30.00
2023-04-21T21:09:43.505Z,19.75
2023-04-21T21:12:45.956Z,24.00
2023-04-21T21:15:48.770Z,27.00
2023-04-21T21:18:51.287Z,24.75
2023-04-21T21:21:54.005Z,28.50
2023-04-21T21:24:56.442Z,28.50
2023-04-21T21:27:59.074Z,28.25
2023-04-21T21:31:01.750Z,25.75
2023-04-21T21:34:04.430Z,27.00
2023-04-21T21:37:06.855Z,26.75
2023-04-21T21:40:10.195Z,25.50
2023-04-21T21:43:12.846Z,27.75
2023-04-21T21:46:15.521Z,27.50
2023-04-21T21:49:18.224Z,28.00
2023-04-21T21:52:21.840Z,32.00
2023-04-21T21:55:24.241Z,29.00
2023-04-21T21:58:27.285Z,31.50
2023-04-21T22:01:29.680Z,26.25
2023-04-21T22:04:32.413Z,26.75
2023-04-21T22:07:37.875Z,27.75
2023-04-21T22:10:40.584Z,32.25
2023-04-21T22:13:43.089Z,28.50
2023-04-21T22:16:45.804Z,28.25
2023-04-21T22:19:48.152Z,30.50
2023-04-21T22:22:50.962Z,30.75
2023-04-21T22:25:53.523Z,27.00
2023-04-21T22:28:56.300Z,26.00
2023-04-21T22:31:58.679Z,26.25
2023-04-21T22:35:01.547Z,27.50
2023-04-21T22:38:03.956Z,18.50
2023-04-21T22:41:09.141Z,32.75
2023-04-21T22:44:12.476Z,26.50
2023-04-21T22:47:15.251Z,30.00
2023-04-21T22:50:17.645Z,25.75
2023-04-21T22:53:20.433Z,28.50
2023-04-21T22:56:23.316Z,21.75
2023-04-21T22:59:26.179Z,25.00
2023-04-21T23:02:28.780Z,23.25
2023-04-21T23:05:31.583Z,26.25
2023-04-21T23:08:33.860Z,24.50
2023-04-21T23:11:36.606Z,29.00
2023-04-21T23:14:38.956Z,25.25
2023-04-21T23:17:42.904Z,16.33
2023-04-21T23:20:45.455Z,25.50
2023-04-21T23:23:48.061Z,26.75
2023-04-21T23:26:50.452Z,25.50
2023-04-21T23:29:53.078Z,25.75
2023-04-21T23:32:55.518Z,29.00
2023-04-21T23:35:58.328Z,24.25
2023-04-21T23:39:01.206Z,20.50
2023-04-21T23:42:04.930Z,24.50
2023-04-21T23:45:07.907Z,24.75
2023-04-21T23:48:10.862Z,24.75
2023-04-21T23:51:13.480Z,27.75
2023-04-21T23:54:16.569Z,20.00
2023-04-21T23:57:18.971Z,21.00
